createdAt,value
2023-03-13T00:13:23.870Z,19.25
2023-03-13T00:20:08.162Z,21.20
2023-03-13T00:22:55.216Z,21.52
2023-03-13T02:02:59.658Z,14.07
2023-03-13T02:05:31.911Z,14.45
2023-03-13T02:09:04.855Z,16.23
2023-03-13T02:34:47.723Z,17.77
2023-03-13T02:53:47.341Z,22.15
2023-03-13T03:14:51.247Z,20.52
2023-03-13T03:21:29.823Z,23.90
2023-03-13T03:24:22.444Z,24.05
2023-03-13T03:27:14.920Z,26.92
2023-03-13T03:30:12.146Z,26.02
2023-03-13T03:32:47.850Z,24.25
2023-03-13T03:36:22.480Z,25.00
2023-03-13T03:38:51.894Z,24.63
2023-03-13T03:41:56.190Z,26.90
2023-03-13T03:44:43.086Z,23.73
2023-03-13T03:47:34.864Z,29.27
2023-03-13T03:50:18.628Z,27.60
2023-03-13T03:53:01.569Z,33.25
2023-03-13T03:55:30.128Z,29.60
2023-03-13T03:58:03.729Z,33.50
2023-03-13T04:01:27.804Z,30.17
2023-03-13T04:03:56.071Z,27.33
2023-03-13T04:07:26.000Z,31.98
2023-03-13T04:10:03.301Z,27.40
2023-03-13T04:12:56.777Z,27.88
2023-03-13T04:16:13.233Z,29.20
2023-03-13T04:20:01.597Z,28.27
2023-03-13T04:26:26.308Z,35.60
2023-03-13T04:29:42.748Z,32.92
2023-03-13T04:32:41.464Z,38.95
2023-03-13T04:35:31.414Z,38.22
2023-03-13T04:38:19.053Z,38.55
2023-03-13T04:41:12.313Z,41.35
2023-03-13T04:44:04.277Z,40.42
2023-03-13T04:46:58.991Z,43.72
2023-03-13T04:52:26.732Z,41.35
2023-03-13T04:55:15.383Z,41.40
2023-03-13T04:58:23.533Z,39.10
2023-03-13T05:01:24.804Z,42.75
2023-03-13T05:04:18.040Z,44.25
2023-03-13T05:07:09.085Z,44.15
2023-03-13T05:09:37.364Z,43.58
2023-03-13T05:12:35.083Z,42.80
2023-03-13T05:15:23.791Z,38.65
2023-03-13T05:18:10.812Z,37.55
2023-03-13T05:21:08.771Z,45.47
2023-03-13T05:24:12.738Z,50.03
2023-03-13T05:26:50.070Z,39.40
2023-03-13T05:29:54.002Z,39.92
2023-03-13T05:33:00.783Z,48.50
2023-03-13T05:35:58.736Z,47.65
2023-03-13T05:38:40.520Z,42.60
2023-03-13T05:41:33.165Z,50.67
2023-03-13T05:44:20.022Z,49.33
2023-03-13T05:47:04.066Z,43.65
2023-03-13T05:49:32.611Z,46.08
2023-03-13T05:52:09.936Z,48.67
2023-03-13T05:54:49.896Z,48.55
2023-03-13T05:57:34.958Z,49.28
2023-03-13T06:00:09.199Z,40.00
2023-03-13T06:03:02.005Z,44.10
2023-03-13T06:05:36.284Z,43.88
2023-03-13T06:08:09.245Z,49.30
2023-03-13T06:10:38.883Z,46.10
2023-03-13T06:13:18.964Z,47.30
2023-03-13T06:15:55.540Z,46.15
2023-03-13T06:18:43.273Z,43.25
2023-03-13T06:21:11.955Z,41.90
2023-03-13T06:23:42.382Z,34.85
2023-03-13T06:26:10.675Z,41.78
2023-03-13T06:28:39.497Z,35.63
2023-03-13T06:31:08.177Z,38.10
2023-03-13T06:33:37.435Z,36.92
2023-03-13T06:36:06.287Z,39.95
2023-03-13T06:38:35.246Z,37.00
2023-03-13T06:41:03.806Z,38.30
2023-03-13T06:43:32.604Z,30.65
2023-03-13T06:46:05.060Z,35.47
2023-03-13T06:48:34.307Z,37.22
2023-03-13T06:51:02.657Z,34.17
2023-03-13T06:53:31.254Z,34.38
2023-03-13T06:56:02.064Z,30.00
2023-03-13T06:58:32.778Z,29.00
2023-03-13T07:01:10.484Z,27.88
2023-03-13T07:03:41.444Z,26.48
2023-03-13T07:06:11.608Z,29.88
2023-03-13T07:08:40.457Z,28.88
2023-03-13T07:11:10.279Z,25.15
2023-03-13T07:13:38.942Z,27.35
2023-03-13T07:16:10.613Z,24.83
2023-03-13T07:18:42.259Z,23.35
2023-03-13T07:21:11.439Z,26.17
2023-03-13T07:23:41.068Z,25.90
2023-03-13T07:26:14.629Z,28.23
2023-03-13T07:28:43.576Z,20.25
2023-03-13T07:31:15.394Z,24.75
2023-03-13T07:33:45.465Z,21.45
2023-03-13T07:36:15.409Z,26.20
2023-03-13T07:38:47.531Z,20.88
2023-03-13T07:41:15.989Z,20.58
2023-03-13T07:43:45.152Z,21.50
2023-03-13T07:46:16.463Z,21.33
2023-03-13T07:48:45.476Z,24.10
2023-03-13T07:51:17.396Z,19.52
2023-03-13T07:53:49.889Z,18.33
2023-03-13T07:56:21.384Z,20.45
2023-03-13T07:58:51.376Z,16.40
2023-03-13T08:01:24.315Z,17.05
2023-03-13T08:03:56.061Z,18.95
2023-03-13T08:06:26.061Z,21.02
2023-03-13T08:08:58.475Z,21.88
2023-03-13T08:13:57.229Z,17.35
2023-03-13T08:16:28.442Z,18.08
2023-03-13T08:18:58.752Z,21.15
2023-03-13T08:21:32.302Z,20.98
2023-03-13T08:24:06.102Z,22.42
2023-03-13T08:26:37.043Z,28.55
2023-03-13T08:29:12.292Z,16.55
2023-03-13T08:31:47.625Z,16.80
2023-03-13T08:34:17.508Z,17.83
2023-03-13T08:36:46.855Z,19.58
2023-03-13T08:39:18.129Z,16.58
2023-03-13T08:41:47.333Z,18.95
2023-03-13T08:44:18.784Z,16.17
2023-03-13T08:46:49.411Z,17.13
2023-03-13T08:49:18.274Z,18.17
2023-03-13T08:51:46.745Z,18.02
2023-03-13T08:54:15.325Z,18.02
2023-03-13T08:56:44.096Z,19.75
2023-03-13T08:59:12.935Z,16.38
2023-03-13T09:01:41.996Z,16.95
2023-03-13T09:04:11.204Z,16.65
2023-03-13T09:06:39.753Z,20.55
2023-03-13T09:09:08.918Z,15.88
2023-03-13T09:11:39.494Z,20.10
2023-03-13T09:14:08.891Z,16.60
2023-03-13T09:16:56.589Z,18.13
2023-03-13T09:19:25.556Z,22.35
2023-03-13T09:21:53.872Z,15.02
2023-03-13T09:24:22.608Z,18.15
2023-03-13T09:27:00.687Z,13.63
2023-03-13T09:29:31.274Z,17.27
2023-03-13T09:32:00.058Z,19.00
2023-03-13T09:34:28.856Z,15.30
2023-03-13T09:36:57.139Z,16.13
2023-03-13T09:39:25.718Z,21.58
2023-03-13T09:42:10.096Z,20.05
2023-03-13T09:45:00.061Z,18.40
2023-03-13T09:47:57.717Z,17.65
2023-03-13T09:50:38.249Z,15.32
2023-03-13T09:53:15.776Z,17.92
2023-03-13T09:55:46.001Z,14.90
2023-03-13T09:58:24.683Z,19.40
2023-03-13T10:01:02.950Z,17.27
2023-03-13T10:03:48.408Z,19.13
2023-03-13T10:06:24.011Z,22.48
2023-03-13T10:08:53.154Z,20.80
2023-03-13T10:11:39.744Z,14.15
2023-03-13T10:14:20.941Z,17.67
2023-03-13T10:16:56.819Z,19.10
2023-03-13T10:19:44.465Z,18.60
2023-03-13T10:22:27.165Z,17.88
2023-03-13T10:25:00.844Z,20.63
2023-03-13T10:27:30.014Z,18.27
2023-03-13T10:29:58.907Z,20.80
2023-03-13T10:32:27.839Z,25.58
2023-03-13T10:34:57.967Z,44.65
2023-03-13T10:37:31.923Z,19.90
2023-03-13T10:40:25.006Z,21.73
2023-03-13T10:43:03.132Z,20.85
2023-03-13T10:45:35.808Z,21.02
2023-03-13T10:48:19.204Z,19.63
2023-03-13T10:50:50.686Z,20.08
2023-03-13T10:53:32.652Z,20.67
2023-03-13T10:56:11.136Z,20.02
2023-03-13T10:58:46.234Z,20.27
2023-03-13T11:01:34.506Z,24.17
2023-03-13T11:04:21.711Z,18.65
2023-03-13T11:07:01.390Z,16.65
2023-03-13T11:09:30.462Z,18.80
2023-03-13T11:12:06.027Z,21.40
2023-03-13T11:14:38.547Z,18.65
2023-03-13T11:17:25.096Z,18.50
2023-03-13T11:20:08.687Z,29.80
2023-03-13T11:23:18.690Z,21.83
2023-03-13T11:26:12.511Z,26.13
2023-03-13T11:28:56.180Z,17.85
2023-03-13T11:31:31.728Z,20.95
2023-03-13T11:34:30.105Z,22.65
2023-03-13T11:37:09.981Z,18.20
2023-03-13T11:39:48.270Z,17.73
2023-03-13T11:42:39.355Z,19.67
2023-03-13T11:45:13.260Z,25.27
2023-03-13T11:48:29.269Z,19.48
2023-03-13T11:51:20.621Z,20.45
2023-03-13T11:54:15.216Z,22.17
2023-03-13T11:56:53.406Z,21.00
2023-03-13T12:00:03.524Z,17.85
2023-03-13T12:02:52.121Z,25.48
2023-03-13T12:05:23.658Z,16.70
2023-03-13T12:07:59.289Z,22.23
2023-03-13T12:10:36.619Z,19.65
2023-03-13T12:13:21.747Z,32.05
2023-03-13T12:15:57.344Z,21.35
2023-03-13T12:18:36.124Z,25.25
2023-03-13T12:21:19.401Z,22.02
2023-03-13T12:24:03.024Z,24.08
2023-03-13T12:26:43.877Z,21.20
2023-03-13T12:29:47.374Z,25.67
2023-03-13T12:32:33.536Z,20.58
2023-03-13T12:35:29.040Z,26.13
2023-03-13T12:38:17.768Z,22.13
2023-03-13T12:41:25.220Z,21.67
2023-03-13T12:44:08.347Z,26.90
2023-03-13T12:46:44.569Z,21.20
2023-03-13T12:49:24.380Z,24.17
2023-03-13T12:52:02.995Z,27.48
2023-03-13T12:55:03.016Z,25.40
2023-03-13T12:58:07.060Z,20.95
2023-03-13T13:00:40.222Z,14.90
2023-03-13T13:03:22.758Z,16.65
2023-03-13T13:06:26.104Z,32.53
2023-03-13T13:08:54.867Z,19.15
2023-03-13T13:11:39.248Z,17.95
2023-03-13T13:14:17.812Z,23.88
2023-03-13T13:17:25.400Z,23.73
2023-03-13T13:19:54.935Z,20.08
2023-03-13T13:22:38.510Z,14.90
2023-03-13T13:25:13.082Z,17.50
2023-03-13T13:27:41.711Z,17.05
2023-03-13T13:30:32.426Z,20.73
2023-03-13T13:33:19.307Z,17.73
2023-03-13T13:36:08.486Z,17.30
2023-03-13T13:38:41.181Z,20.20
2023-03-13T13:41:09.556Z,16.45
2023-03-13T13:43:49.382Z,14.45
2023-03-13T13:46:29.508Z,16.58
2023-03-13T13:49:07.859Z,14.65
2023-03-13T13:52:13.888Z,13.73
2023-03-13T13:59:26.821Z,11.93
2023-03-13T14:02:22.413Z,10.48
2023-03-13T14:05:25.783Z,11.50
2023-03-13T14:08:00.628Z,9.80
2023-03-13T14:10:50.205Z,11.48
2023-03-13T14:13:25.763Z,10.85
2023-03-13T14:16:26.341Z,7.60
2023-03-13T14:18:47.500Z,9.52
2023-03-13T14:21:23.075Z,11.02
2023-03-13T14:23:53.268Z,7.97
2023-03-13T14:26:26.837Z,8.75
2023-03-13T14:29:07.861Z,9.85
2023-03-13T14:31:39.222Z,11.23
2023-03-13T14:34:12.376Z,11.80
2023-03-13T14:36:57.016Z,13.60
2023-03-13T14:39:33.988Z,13.95
2023-03-13T14:42:09.433Z,15.30
2023-03-13T14:44:46.451Z,10.90
2023-03-13T14:47:31.487Z,10.88
2023-03-13T14:50:09.827Z,14.07
2023-03-13T14:52:46.439Z,12.38
2023-03-13T14:55:43.575Z,14.10
2023-03-13T14:58:31.090Z,13.20
2023-03-13T15:01:13.821Z,18.08
2023-03-13T15:07:04.707Z,11.98
2023-03-13T15:11:19.489Z,12.75
2023-03-13T15:13:36.954Z,13.30
2023-03-13T15:16:24.428Z,14.60
2023-03-13T15:18:55.009Z,13.30
2023-03-13T15:21:42.026Z,12.27
2023-03-13T15:25:54.928Z,13.13
2023-03-13T15:28:50.240Z,13.45
2023-03-13T15:31:48.376Z,10.93
2023-03-13T15:34:27.750Z,32.28
2023-03-13T15:37:51.847Z,14.10
2023-03-13T15:40:28.983Z,15.52
2023-03-13T15:42:58.252Z,15.65
2023-03-13T15:45:40.165Z,15.52
2023-03-13T15:48:32.018Z,13.80
2023-03-13T15:51:08.988Z,21.55
2023-03-13T15:53:41.533Z,23.42
2023-03-13T15:56:33.407Z,22.00
2023-03-13T15:59:16.882Z,18.85
2023-03-13T16:01:55.483Z,15.18
2023-03-13T16:04:40.956Z,14.57
2023-03-13T16:07:15.175Z,14.27
2023-03-13T16:09:50.392Z,11.52
2023-03-13T16:12:19.706Z,10.90
2023-03-13T16:14:48.313Z,15.10
2023-03-13T16:17:33.127Z,14.40
2023-03-13T16:20:16.824Z,11.48
2023-03-13T16:23:08.834Z,12.73
2023-03-13T16:25:39.567Z,14.20
2023-03-13T16:28:14.705Z,15.57
2023-03-13T16:30:47.823Z,18.17
2023-03-13T16:33:18.034Z,11.50
2023-03-13T16:35:48.822Z,11.27
2023-03-13T16:38:22.895Z,13.57
2023-03-13T16:40:51.799Z,15.02
2023-03-13T16:43:25.470Z,11.98
2023-03-13T16:45:55.745Z,9.60
2023-03-13T16:48:24.734Z,9.38
2023-03-13T16:51:00.137Z,14.63
2023-03-13T16:53:47.971Z,12.68
2023-03-13T16:56:29.357Z,13.38
2023-03-13T16:58:58.811Z,13.85
2023-03-13T17:01:30.244Z,10.25
2023-03-13T17:04:00.794Z,15.25
2023-03-13T17:06:52.342Z,15.52
2023-03-13T17:09:30.845Z,15.70
2023-03-13T17:12:05.638Z,15.60
2023-03-13T17:14:42.041Z,12.25
2023-03-13T17:17:27.918Z,13.27
2023-03-13T17:20:06.918Z,12.02
2023-03-13T17:23:59.525Z,11.82
2023-03-13T17:26:04.395Z,10.60
2023-03-13T17:28:56.533Z,10.98
2023-03-13T17:31:40.147Z,12.90
2023-03-13T17:34:18.159Z,13.77
2023-03-13T17:36:49.329Z,13.25
2023-03-13T17:39:27.942Z,11.95
2023-03-13T17:42:03.311Z,12.32
2023-03-13T17:44:36.680Z,21.13
2023-03-13T17:47:27.613Z,16.88
2023-03-13T17:49:56.083Z,23.15
2023-03-13T17:52:26.982Z,16.95
2023-03-13T17:55:18.997Z,18.77
2023-03-13T17:57:49.021Z,17.88
2023-03-13T18:00:24.433Z,18.95
2023-03-13T18:03:06.049Z,12.57
2023-03-13T18:05:55.973Z,14.20
2023-03-13T18:08:27.985Z,15.00
2023-03-13T18:11:02.797Z,16.05
2023-03-13T18:13:36.963Z,16.20
2023-03-13T18:16:43.509Z,18.17
2023-03-13T18:19:25.886Z,13.85
2023-03-13T18:22:03.025Z,14.65
2023-03-13T18:24:32.072Z,12.43
2023-03-13T18:27:05.221Z,16.98
2023-03-13T18:29:37.328Z,17.48
2023-03-13T18:32:17.041Z,14.95
2023-03-13T18:34:54.552Z,14.63
2023-03-13T18:37:34.954Z,13.63
2023-03-13T18:40:19.607Z,16.15
2023-03-13T18:42:58.456Z,16.08
2023-03-13T18:45:37.495Z,14.10
2023-03-13T18:48:11.649Z,14.85
2023-03-13T18:51:06.756Z,15.75
2023-03-13T18:53:42.943Z,16.13
2023-03-13T18:56:22.105Z,13.30
2023-03-13T18:58:55.247Z,13.02
2023-03-13T19:01:30.388Z,13.63
2023-03-13T19:04:00.206Z,15.55
2023-03-13T19:06:34.615Z,14.35
2023-03-13T19:09:42.572Z,16.98
2023-03-13T19:12:43.990Z,13.55
2023-03-13T19:15:29.432Z,16.35
2023-03-13T19:20:55.930Z,15.02
2023-03-13T19:23:25.186Z,11.85
2023-03-13T19:25:57.074Z,17.67
2023-03-13T20:08:38.581Z,22.00
2023-03-13T20:16:35.317Z,23.63
2023-03-13T20:19:17.378Z,20.67
2023-03-13T20:22:16.779Z,17.65
2023-03-13T20:29:53.648Z,20.52
2023-03-13T20:32:30.859Z,21.40
2023-03-13T20:35:28.473Z,16.33
2023-03-13T20:38:01.976Z,17.17
2023-03-13T20:40:31.355Z,16.42
2023-03-13T20:46:00.735Z,21.35
2023-03-13T20:49:01.956Z,17.40
2023-03-13T21:25:40.113Z,13.00
2023-03-13T21:28:09.624Z,13.90
2023-03-13T21:30:55.974Z,10.18
2023-03-13T21:33:28.947Z,10.80
2023-03-13T21:35:58.719Z,12.90
2023-03-13T21:38:28.023Z,12.52
2023-03-13T21:41:00.714Z,10.43
2023-03-13T21:43:58.838Z,11.20
2023-03-13T21:46:33.233Z,11.65
2023-03-13T21:49:02.226Z,9.20
2023-03-13T21:51:30.524Z,9.48
2023-03-13T21:53:59.115Z,9.30
2023-03-13T21:56:27.542Z,10.73
2023-03-13T21:58:56.398Z,10.32
2023-03-13T22:01:24.844Z,11.38
2023-03-13T22:03:53.583Z,13.85
2023-03-13T22:06:23.046Z,10.63
2023-03-13T22:08:51.955Z,9.65
2023-03-13T22:11:20.385Z,10.65
2023-03-13T22:13:52.704Z,10.65
2023-03-13T22:16:21.564Z,7.15
2023-03-13T22:18:50.478Z,9.10
2023-03-13T22:21:19.626Z,8.73
2023-03-13T22:23:48.499Z,10.23
2023-03-13T22:26:17.680Z,9.85
2023-03-13T22:28:46.685Z,14.05
2023-03-13T22:31:16.327Z,9.63
2023-03-13T22:33:45.018Z,10.57
2023-03-13T22:36:13.422Z,11.48
2023-03-13T22:38:42.211Z,6.00
2023-03-13T22:41:13.741Z,9.02
2023-03-13T22:43:43.111Z,9.52
2023-03-13T22:46:12.236Z,8.95
2023-03-13T22:48:42.008Z,11.82
2023-03-13T22:51:13.194Z,8.70
2023-03-13T22:53:44.157Z,9.98
2023-03-13T22:56:14.043Z,9.13
2023-03-13T22:58:43.253Z,10.23
2023-03-13T23:01:14.666Z,8.35
2023-03-13T23:03:45.746Z,8.48
2023-03-13T23:06:22.095Z,8.07
2023-03-13T23:09:30.812Z,7.88
2023-03-13T23:11:59.474Z,8.50
2023-03-13T23:14:29.196Z,8.25
2023-03-13T23:16:58.245Z,9.40
2023-03-13T23:19:26.556Z,8.15
2023-03-13T23:21:55.586Z,9.73
2023-03-13T23:24:24.780Z,8.13
2023-03-13T23:26:53.521Z,9.52
2023-03-13T23:29:23.206Z,9.27
2023-03-13T23:31:52.975Z,7.03
2023-03-13T23:34:23.107Z,8.00
2023-03-13T23:36:54.853Z,8.70
2023-03-13T23:39:27.961Z,8.80
2023-03-13T23:42:04.876Z,8.45
2023-03-13T23:44:35.010Z,9.70
2023-03-13T23:47:07.383Z,8.98
2023-03-13T23:49:35.778Z,7.40
2023-03-13T23:52:04.786Z,7.35
2023-03-13T23:54:33.156Z,9.20
2023-03-13T23:57:01.851Z,7.60
2023-03-13T23:59:30.076Z,10.63
